sensor_id;sensor_type;location;lat;lon;timestamp;P1;durP1;ratioP1;P2;durP2;ratioP2
19589;SDS011;12231;42.782;23.388;2022-07-06T00:01:43;17.25;;;14.88;;
19589;SDS011;12231;42.782;23.388;2022-07-06T00:04:09;16.63;;;14.45;;
19589;SDS011;12231;42.782;23.388;2022-07-06T00:06:35;15.82;;;14.30;;
19589;SDS011;12231;42.782;23.388;2022-07-06T00:09:00;15.35;;;13.73;;
19589;SDS011;12231;42.782;23.388;2022-07-06T00:11:26;16.05;;;14.35;;
19589;SDS011;12231;42.782;23.388;2022-07-06T00:13:52;14.52;;;12.52;;
19589;SDS011;12231;42.782;23.388;2022-07-06T00:16:17;15.00;;;13.43;;
19589;SDS011;12231;42.782;23.388;2022-07-06T00:18:45;14.98;;;13.45;;
19589;SDS011;12231;42.782;23.388;2022-07-06T00:21:10;14.68;;;13.07;;
19589;SDS011;12231;42.782;23.388;2022-07-06T00:23:36;16.95;;;13.10;;
19589;SDS011;12231;42.782;23.388;2022-07-06T00:26:02;17.05;;;13.43;;
19589;SDS011;12231;42.782;23.388;2022-07-06T00:28:27;14.90;;;13.35;;
19589;SDS011;12231;42.782;23.388;2022-07-06T00:30:53;14.50;;;13.10;;
19589;SDS011;12231;42.782;23.388;2022-07-06T00:33:19;16.30;;;13.70;;
19589;SDS011;12231;42.782;23.388;2022-07-06T00:35:45;14.57;;;13.13;;
19589;SDS011;12231;42.782;23.388;2022-07-06T00:38:10;15.68;;;14.07;;
19589;SDS011;12231;42.782;23.388;2022-07-06T00:40:37;15.05;;;13.52;;
19589;SDS011;12231;42.782;23.388;2022-07-06T00:43:02;14.80;;;13.18;;
19589;SDS011;12231;42.782;23.388;2022-07-06T00:45:28;14.98;;;13.57;;
19589;SDS011;12231;42.782;23.388;2022-07-06T00:47:53;13.70;;;12.20;;
19589;SDS011;12231;42.782;23.388;2022-07-06T00:50:19;14.07;;;11.73;;
19589;SDS011;12231;42.782;23.388;2022-07-06T00:52:52;13.25;;;11.93;;
19589;SDS011;12231;42.782;23.388;2022-07-06T00:55:26;13.38;;;11.98;;
19589;SDS011;12231;42.782;23.388;2022-07-06T00:57:53;15.38;;;12.40;;
19589;SDS011;12231;42.782;23.388;2022-07-06T01:00:20;14.63;;;12.63;;
19589;SDS011;12231;42.782;23.388;2022-07-06T01:02:47;13.20;;;11.80;;
19589;SDS011;12231;42.782;23.388;2022-07-06T01:05:13;13.32;;;11.93;;
19589;SDS011;12231;42.782;23.388;2022-07-06T01:07:41;15.27;;;13.68;;
19589;SDS011;12231;42.782;23.388;2022-07-06T01:10:09;13.88;;;12.00;;
19589;SDS011;12231;42.782;23.388;2022-07-06T01:12:36;14.10;;;12.60;;
19589;SDS011;12231;42.782;23.388;2022-07-06T01:15:03;16.42;;;12.32;;
19589;SDS011;12231;42.782;23.388;2022-07-06T01:17:32;14.15;;;12.45;;
19589;SDS011;12231;42.782;23.388;2022-07-06T01:19:58;14.15;;;12.70;;
19589;SDS011;12231;42.782;23.388;2022-07-06T01:22:23;15.13;;;13.38;;
19589;SDS011;12231;42.782;23.388;2022-07-06T01:24:48;14.75;;;12.25;;
19589;SDS011;12231;42.782;23.388;2022-07-06T01:27:14;14.15;;;12.27;;
19589;SDS011;12231;42.782;23.388;2022-07-06T01:29:39;14.63;;;13.10;;
19589;SDS011;12231;42.782;23.388;2022-07-06T01:32:05;14.05;;;11.75;;
19589;SDS011;12231;42.782;23.388;2022-07-06T01:34:31;13.40;;;12.00;;
19589;SDS011;12231;42.782;23.388;2022-07-06T01:36:57;16.65;;;12.52;;
19589;SDS011;12231;42.782;23.388;2022-07-06T01:39:22;15.23;;;13.48;;
19589;SDS011;12231;42.782;23.388;2022-07-06T01:41:48;18.83;;;13.50;;
19589;SDS011;12231;42.782;23.388;2022-07-06T01:44:13;14.35;;;12.75;;
19589;SDS011;12231;42.782;23.388;2022-07-06T01:46:39;16.08;;;13.68;;
19589;SDS011;12231;42.782;23.388;2022-07-06T01:49:04;16.52;;;13.20;;
19589;SDS011;12231;42.782;23.388;2022-07-06T01:51:30;17.92;;;13.90;;
19589;SDS011;12231;42.782;23.388;2022-07-06T01:53:56;17.60;;;14.95;;
19589;SDS011;12231;42.782;23.388;2022-07-06T01:56:21;16.25;;;13.93;;
19589;SDS011;12231;42.782;23.388;2022-07-06T01:58:47;15.57;;;13.93;;
19589;SDS011;12231;42.782;23.388;2022-07-06T02:01:16;16.60;;;14.48;;
19589;SDS011;12231;42.782;23.388;2022-07-06T02:03:43;15.52;;;13.85;;
19589;SDS011;12231;42.782;23.388;2022-07-06T02:06:09;15.55;;;13.95;;
19589;SDS011;12231;42.782;23.388;2022-07-06T02:08:37;14.70;;;13.10;;
19589;SDS011;12231;42.782;23.388;2022-07-06T02:11:04;18.40;;;13.93;;
19589;SDS011;12231;42.782;23.388;2022-07-06T02:13:31;15.55;;;12.25;;
19589;SDS011;12231;42.782;23.388;2022-07-06T02:15:57;14.77;;;12.98;;
19589;SDS011;12231;42.782;23.388;2022-07-06T02:18:23;14.02;;;12.35;;
19589;SDS011;12231;42.782;23.388;2022-07-06T02:20:48;15.25;;;13.65;;
19589;SDS011;12231;42.782;23.388;2022-07-06T02:23:14;15.25;;;13.68;;
19589;SDS011;12231;42.782;23.388;2022-07-06T02:25:40;16.10;;;14.05;;
19589;SDS011;12231;42.782;23.388;2022-07-06T02:28:06;16.30;;;13.40;;
19589;SDS011;12231;42.782;23.388;2022-07-06T02:30:31;16.52;;;12.95;;
19589;SDS011;12231;42.782;23.388;2022-07-06T02:32:57;15.05;;;13.48;;
19589;SDS011;12231;42.782;23.388;2022-07-06T02:35:22;17.67;;;12.40;;
19589;SDS011;12231;42.782;23.388;2022-07-06T02:37:48;13.38;;;12.07;;
19589;SDS011;12231;42.782;23.388;2022-07-06T02:40:13;14.00;;;12.00;;
19589;SDS011;12231;42.782;23.388;2022-07-06T02:42:39;13.70;;;12.30;;
19589;SDS011;12231;42.782;23.388;2022-07-06T02:45:04;15.25;;;13.68;;
19589;SDS011;12231;42.782;23.388;2022-07-06T02:47:30;13.07;;;11.65;;
19589;SDS011;12231;42.782;23.388;2022-07-06T02:49:56;17.10;;;13.52;;
19589;SDS011;12231;42.782;23.388;2022-07-06T02:52:21;15.95;;;13.40;;
19589;SDS011;12231;42.782;23.388;2022-07-06T02:54:47;15.68;;;13.45;;
19589;SDS011;12231;42.782;23.388;2022-07-06T02:57:14;16.27;;;13.32;;
19589;SDS011;12231;42.782;23.388;2022-07-06T02:59:39;14.48;;;12.32;;
19589;SDS011;12231;42.782;23.388;2022-07-06T03:02:05;13.73;;;12.32;;
19589;SDS011;12231;42.782;23.388;2022-07-06T03:04:31;13.10;;;11.70;;
19589;SDS011;12231;42.782;23.388;2022-07-06T03:06:57;14.50;;;13.10;;
19589;SDS011;12231;42.782;23.388;2022-07-06T03:09:23;15.02;;;13.45;;
19589;SDS011;12231;42.782;23.388;2022-07-06T03:11:48;15.20;;;12.57;;
19589;SDS011;12231;42.782;23.388;2022-07-06T03:14:14;36.85;;;24.85;;
19589;SDS011;12231;42.782;23.388;2022-07-06T03:16:39;57.35;;;48.78;;
19589;SDS011;12231;42.782;23.388;2022-07-06T03:19:05;15.88;;;14.02;;
19589;SDS011;12231;42.782;23.388;2022-07-06T03:21:30;13.50;;;12.00;;
19589;SDS011;12231;42.782;23.388;2022-07-06T03:23:56;11.85;;;10.65;;
19589;SDS011;12231;42.782;23.388;2022-07-06T03:26:21;14.50;;;11.05;;
19589;SDS011;12231;42.782;23.388;2022-07-06T03:28:47;13.10;;;10.00;;
19589;SDS011;12231;42.782;23.388;2022-07-06T03:31:12;10.82;;;9.60;;
19589;SDS011;12231;42.782;23.388;2022-07-06T03:33:38;10.48;;;9.35;;
19589;SDS011;12231;42.782;23.388;2022-07-06T03:36:04;11.13;;;10.02;;
19589;SDS011;12231;42.782;23.388;2022-07-06T03:38:31;10.63;;;9.50;;
19589;SDS011;12231;42.782;23.388;2022-07-06T03:40:56;11.55;;;9.00;;
19589;SDS011;12231;42.782;23.388;2022-07-06T03:43:22;9.95;;;9.05;;
19589;SDS011;12231;42.782;23.388;2022-07-06T03:45:47;10.27;;;9.18;;
19589;SDS011;12231;42.782;23.388;2022-07-06T03:48:12;12.52;;;8.65;;
19589;SDS011;12231;42.782;23.388;2022-07-06T03:50:38;13.18;;;9.70;;
19589;SDS011;12231;42.782;23.388;2022-07-06T03:53:03;10.05;;;8.48;;
19589;SDS011;12231;42.782;23.388;2022-07-06T03:55:29;12.02;;;9.77;;
19589;SDS011;12231;42.782;23.388;2022-07-06T03:57:54;11.80;;;9.50;;
19589;SDS011;12231;42.782;23.388;2022-07-06T04:00:20;11.23;;;9.15;;
19589;SDS011;12231;42.782;23.388;2022-07-06T04:02:45;16.65;;;12.45;;
19589;SDS011;12231;42.782;23.388;2022-07-06T04:05:10;14.13;;;10.55;;
19589;SDS011;12231;42.782;23.388;2022-07-06T04:07:36;16.75;;;11.30;;
19589;SDS011;12231;42.782;23.388;2022-07-06T04:10:02;15.50;;;10.63;;
19589;SDS011;12231;42.782;23.388;2022-07-06T04:12:27;15.48;;;11.18;;
19589;SDS011;12231;42.782;23.388;2022-07-06T04:14:55;16.90;;;13.05;;
19589;SDS011;12231;42.782;23.388;2022-07-06T04:17:21;12.70;;;11.40;;
19589;SDS011;12231;42.782;23.388;2022-07-06T04:20:06;14.85;;;10.57;;
19589;SDS011;12231;42.782;23.388;2022-07-06T04:22:32;12.48;;;10.95;;
19589;SDS011;12231;42.782;23.388;2022-07-06T04:24:57;15.15;;;10.65;;
19589;SDS011;12231;42.782;23.388;2022-07-06T04:27:22;14.68;;;11.73;;
19589;SDS011;12231;42.782;23.388;2022-07-06T04:29:48;12.00;;;10.85;;
19589;SDS011;12231;42.782;23.388;2022-07-06T04:32:13;11.30;;;10.20;;
19589;SDS011;12231;42.782;23.388;2022-07-06T04:34:39;11.98;;;10.75;;
19589;SDS011;12231;42.782;23.388;2022-07-06T04:37:04;13.05;;;11.70;;
19589;SDS011;12231;42.782;23.388;2022-07-06T04:39:29;13.65;;;11.73;;
19589;SDS011;12231;42.782;23.388;2022-07-06T04:41:56;12.10;;;10.82;;
19589;SDS011;12231;42.782;23.388;2022-07-06T04:44:22;13.75;;;11.45;;
19589;SDS011;12231;42.782;23.388;2022-07-06T04:46:47;14.50;;;11.38;;
19589;SDS011;12231;42.782;23.388;2022-07-06T04:49:13;13.85;;;11.15;;
19589;SDS011;12231;42.782;23.388;2022-07-06T04:51:38;14.15;;;12.65;;
19589;SDS011;12231;42.782;23.388;2022-07-06T04:54:04;14.88;;;12.05;;
19589;SDS011;12231;42.782;23.388;2022-07-06T04:56:30;19.15;;;12.20;;
19589;SDS011;12231;42.782;23.388;2022-07-06T04:58:56;17.75;;;12.60;;
19589;SDS011;12231;42.782;23.388;2022-07-06T05:01:21;15.52;;;12.55;;
19589;SDS011;12231;42.782;23.388;2022-07-06T05:03:46;15.63;;;11.95;;
19589;SDS011;12231;42.782;23.388;2022-07-06T05:06:12;16.17;;;11.60;;
19589;SDS011;12231;42.782;23.388;2022-07-06T05:08:37;13.00;;;10.93;;
19589;SDS011;12231;42.782;23.388;2022-07-06T05:11:03;14.10;;;10.70;;
19589;SDS011;12231;42.782;23.388;2022-07-06T05:13:29;14.57;;;11.00;;
19589;SDS011;12231;42.782;23.388;2022-07-06T05:15:54;13.13;;;10.63;;
19589;SDS011;12231;42.782;23.388;2022-07-06T05:18:20;12.40;;;10.40;;
19589;SDS011;12231;42.782;23.388;2022-07-06T05:20:45;11.10;;;9.98;;
19589;SDS011;12231;42.782;23.388;2022-07-06T05:23:10;10.98;;;9.80;;
19589;SDS011;12231;42.782;23.388;2022-07-06T05:25:36;11.70;;;9.65;;
19589;SDS011;12231;42.782;23.388;2022-07-06T05:28:02;9.88;;;8.88;;
19589;SDS011;12231;42.782;23.388;2022-07-06T05:30:28;10.35;;;9.35;;
19589;SDS011;12231;42.782;23.388;2022-07-06T05:32:53;9.82;;;8.80;;
19589;SDS011;12231;42.782;23.388;2022-07-06T05:35:21;9.82;;;8.82;;
19589;SDS011;12231;42.782;23.388;2022-07-06T05:37:47;10.32;;;9.18;;
19589;SDS011;12231;42.782;23.388;2022-07-06T05:40:12;12.32;;;10.18;;
19589;SDS011;12231;42.782;23.388;2022-07-06T05:42:38;11.73;;;10.45;;
19589;SDS011;12231;42.782;23.388;2022-07-06T05:45:03;11.30;;;10.20;;
19589;SDS011;12231;42.782;23.388;2022-07-06T05:47:30;12.10;;;10.63;;
19589;SDS011;12231;42.782;23.388;2022-07-06T05:50:14;11.23;;;10.18;;
19589;SDS011;12231;42.782;23.388;2022-07-06T05:52:43;10.77;;;9.70;;
19589;SDS011;12231;42.782;23.388;2022-07-06T05:55:10;10.75;;;9.77;;
19589;SDS011;12231;42.782;23.388;2022-07-06T05:57:37;11.73;;;10.48;;
19589;SDS011;12231;42.782;23.388;2022-07-06T06:00:06;12.95;;;11.60;;
19589;SDS011;12231;42.782;23.388;2022-07-06T06:02:36;12.18;;;10.48;;
19589;SDS011;12231;42.782;23.388;2022-07-06T06:05:06;11.13;;;9.75;;
19589;SDS011;12231;42.782;23.388;2022-07-06T06:07:33;10.57;;;9.57;;
19589;SDS011;12231;42.782;23.388;2022-07-06T06:10:00;13.93;;;10.93;;
19589;SDS011;12231;42.782;23.388;2022-07-06T06:12:25;13.65;;;12.07;;
19589;SDS011;12231;42.782;23.388;2022-07-06T06:14:51;14.68;;;12.93;;
19589;SDS011;12231;42.782;23.388;2022-07-06T06:17:16;15.30;;;13.30;;
19589;SDS011;12231;42.782;23.388;2022-07-06T06:19:42;15.43;;;13.07;;
19589;SDS011;12231;42.782;23.388;2022-07-06T06:22:07;16.48;;;12.68;;
19589;SDS011;12231;42.782;23.388;2022-07-06T06:24:32;14.35;;;12.63;;
19589;SDS011;12231;42.782;23.388;2022-07-06T06:26:58;12.30;;;11.10;;
19589;SDS011;12231;42.782;23.388;2022-07-06T06:29:24;14.00;;;11.68;;
19589;SDS011;12231;42.782;23.388;2022-07-06T06:31:50;14.27;;;11.77;;
19589;SDS011;12231;42.782;23.388;2022-07-06T06:34:16;16.30;;;13.88;;
19589;SDS011;12231;42.782;23.388;2022-07-06T06:36:41;13.10;;;11.75;;
19589;SDS011;12231;42.782;23.388;2022-07-06T06:39:06;13.07;;;11.65;;
19589;SDS011;12231;42.782;23.388;2022-07-06T06:41:32;12.52;;;10.82;;
19589;SDS011;12231;42.782;23.388;2022-07-06T06:43:57;13.30;;;12.07;;
19589;SDS011;12231;42.782;23.388;2022-07-06T06:46:23;11.65;;;10.55;;
19589;SDS011;12231;42.782;23.388;2022-07-06T06:48:48;10.38;;;9.07;;
19589;SDS011;12231;42.782;23.388;2022-07-06T06:51:14;10.77;;;8.90;;
19589;SDS011;12231;42.782;23.388;2022-07-06T06:53:39;9.30;;;8.23;;
19589;SDS011;12231;42.782;23.388;2022-07-06T06:56:05;9.35;;;8.45;;
19589;SDS011;12231;42.782;23.388;2022-07-06T06:58:30;9.48;;;8.55;;
19589;SDS011;12231;42.782;23.388;2022-07-06T07:00:56;12.15;;;8.38;;
19589;SDS011;12231;42.782;23.388;2022-07-06T07:03:21;9.05;;;8.15;;
19589;SDS011;12231;42.782;23.388;2022-07-06T07:05:47;12.02;;;6.95;;
19589;SDS011;12231;42.782;23.388;2022-07-06T07:08:13;9.05;;;8.00;;
19589;SDS011;12231;42.782;23.388;2022-07-06T07:10:39;10.70;;;8.30;;
19589;SDS011;12231;42.782;23.388;2022-07-06T07:13:04;21.63;;;18.63;;
19589;SDS011;12231;42.782;23.388;2022-07-06T07:15:29;24.15;;;21.13;;
19589;SDS011;12231;42.782;23.388;2022-07-06T07:17:55;12.13;;;9.55;;
19589;SDS011;12231;42.782;23.388;2022-07-06T07:20:21;10.75;;;9.75;;
19589;SDS011;12231;42.782;23.388;2022-07-06T07:22:46;10.57;;;9.52;;
19589;SDS011;12231;42.782;23.388;2022-07-06T07:25:12;10.70;;;9.70;;
19589;SDS011;12231;42.782;23.388;2022-07-06T07:27:37;10.55;;;9.55;;
19589;SDS011;12231;42.782;23.388;2022-07-06T07:30:03;10.75;;;9.82;;
19589;SDS011;12231;42.782;23.388;2022-07-06T07:32:29;12.77;;;10.55;;
19589;SDS011;12231;42.782;23.388;2022-07-06T07:34:54;10.63;;;9.50;;
19589;SDS011;12231;42.782;23.388;2022-07-06T07:37:20;13.68;;;12.30;;
19589;SDS011;12231;42.782;23.388;2022-07-06T07:39:45;13.65;;;12.30;;
19589;SDS011;12231;42.782;23.388;2022-07-06T07:42:10;9.23;;;8.52;;
19589;SDS011;12231;42.782;23.388;2022-07-06T07:44:36;8.38;;;7.65;;
19589;SDS011;12231;42.782;23.388;2022-07-06T07:47:03;9.57;;;8.20;;
19589;SDS011;12231;42.782;23.388;2022-07-06T07:49:29;9.60;;;8.48;;
19589;SDS011;12231;42.782;23.388;2022-07-06T07:51:55;8.07;;;7.38;;
19589;SDS011;12231;42.782;23.388;2022-07-06T07:54:20;8.77;;;8.07;;
19589;SDS011;12231;42.782;23.388;2022-07-06T07:56:45;9.50;;;8.70;;
19589;SDS011;12231;42.782;23.388;2022-07-06T07:59:11;10.10;;;8.75;;
19589;SDS011;12231;42.782;23.388;2022-07-06T08:01:38;9.60;;;8.80;;
19589;SDS011;12231;42.782;23.388;2022-07-06T08:04:03;10.15;;;9.15;;
19589;SDS011;12231;42.782;23.388;2022-07-06T08:06:29;9.65;;;8.85;;
19589;SDS011;12231;42.782;23.388;2022-07-06T08:08:54;10.07;;;9.07;;
19589;SDS011;12231;42.782;23.388;2022-07-06T08:11:20;9.82;;;8.90;;
19589;SDS011;12231;42.782;23.388;2022-07-06T08:13:45;10.55;;;9.65;;
19589;SDS011;12231;42.782;23.388;2022-07-06T08:16:11;11.32;;;10.35;;
19589;SDS011;12231;42.782;23.388;2022-07-06T08:18:37;10.75;;;9.70;;
19589;SDS011;12231;42.782;23.388;2022-07-06T08:21:02;10.30;;;9.30;;
19589;SDS011;12231;42.782;23.388;2022-07-06T08:23:28;15.63;;;13.88;;
19589;SDS011;12231;42.782;23.388;2022-07-06T08:25:54;9.93;;;9.13;;
19589;SDS011;12231;42.782;23.388;2022-07-06T08:28:19;9.30;;;8.50;;
19589;SDS011;12231;42.782;23.388;2022-07-06T08:30:45;9.60;;;8.70;;
19589;SDS011;12231;42.782;23.388;2022-07-06T08:33:10;11.15;;;10.05;;
19589;SDS011;12231;42.782;23.388;2022-07-06T08:35:36;9.57;;;8.77;;
19589;SDS011;12231;42.782;23.388;2022-07-06T08:38:01;9.98;;;9.07;;
19589;SDS011;12231;42.782;23.388;2022-07-06T08:40:30;10.65;;;9.68;;
19589;SDS011;12231;42.782;23.388;2022-07-06T08:42:59;11.48;;;10.25;;
19589;SDS011;12231;42.782;23.388;2022-07-06T08:45:25;11.18;;;10.13;;
19589;SDS011;12231;42.782;23.388;2022-07-06T08:47:51;10.93;;;9.93;;
19589;SDS011;12231;42.782;23.388;2022-07-06T08:50:20;11.02;;;9.63;;
19589;SDS011;12231;42.782;23.388;2022-07-06T08:52:49;10.45;;;9.55;;
19589;SDS011;12231;42.782;23.388;2022-07-06T08:55:16;11.27;;;10.23;;
19589;SDS011;12231;42.782;23.388;2022-07-06T08:57:42;10.43;;;9.40;;
19589;SDS011;12231;42.782;23.388;2022-07-06T09:00:11;10.77;;;9.55;;
19589;SDS011;12231;42.782;23.388;2022-07-06T09:02:37;10.85;;;9.75;;
19589;SDS011;12231;42.782;23.388;2022-07-06T09:05:05;10.63;;;9.32;;
19589;SDS011;12231;42.782;23.388;2022-07-06T09:07:33;11.65;;;10.57;;
19589;SDS011;12231;42.782;23.388;2022-07-06T09:09:59;12.00;;;10.98;;
19589;SDS011;12231;42.782;23.388;2022-07-06T09:12:26;12.13;;;11.02;;
19589;SDS011;12231;42.782;23.388;2022-07-06T09:14:55;11.82;;;10.65;;
19589;SDS011;12231;42.782;23.388;2022-07-06T09:17:24;12.27;;;11.18;;
19589;SDS011;12231;42.782;23.388;2022-07-06T09:19:52;13.70;;;12.07;;
19589;SDS011;12231;42.782;23.388;2022-07-06T09:22:25;12.52;;;11.43;;
19589;SDS011;12231;42.782;23.388;2022-07-06T09:25:02;12.45;;;11.25;;
19589;SDS011;12231;42.782;23.388;2022-07-06T09:27:30;13.35;;;12.10;;
19589;SDS011;12231;42.782;23.388;2022-07-06T09:29:59;11.85;;;10.80;;
19589;SDS011;12231;42.782;23.388;2022-07-06T09:32:26;13.63;;;12.45;;
19589;SDS011;12231;42.782;23.388;2022-07-06T09:34:51;14.57;;;13.07;;
19589;SDS011;12231;42.782;23.388;2022-07-06T09:37:17;13.90;;;12.60;;
19589;SDS011;12231;42.782;23.388;2022-07-06T09:39:43;14.73;;;13.35;;
19589;SDS011;12231;42.782;23.388;2022-07-06T09:42:09;14.85;;;13.10;;
19589;SDS011;12231;42.782;23.388;2022-07-06T09:44:36;15.02;;;13.52;;
19589;SDS011;12231;42.782;23.388;2022-07-06T09:47:04;15.35;;;13.70;;
19589;SDS011;12231;42.782;23.388;2022-07-06T09:49:31;18.08;;;15.63;;
19589;SDS011;12231;42.782;23.388;2022-07-06T09:51:58;16.52;;;15.00;;
19589;SDS011;12231;42.782;23.388;2022-07-06T09:54:26;17.13;;;15.30;;
19589;SDS011;12231;42.782;23.388;2022-07-06T09:56:53;17.45;;;15.65;;
19589;SDS011;12231;42.782;23.388;2022-07-06T09:59:20;17.85;;;16.15;;
19589;SDS011;12231;42.782;23.388;2022-07-06T10:01:51;16.02;;;14.48;;
19589;SDS011;12231;42.782;23.388;2022-07-06T10:04:18;17.90;;;16.00;;
19589;SDS011;12231;42.782;23.388;2022-07-06T10:06:45;16.92;;;15.23;;
19589;SDS011;12231;42.782;23.388;2022-07-06T10:09:11;16.33;;;14.82;;
19589;SDS011;12231;42.782;23.388;2022-07-06T10:11:38;16.05;;;14.48;;
19589;SDS011;12231;42.782;23.388;2022-07-06T10:14:09;16.02;;;14.52;;
19589;SDS011;12231;42.782;23.388;2022-07-06T10:16:37;15.48;;;13.98;;
19589;SDS011;12231;42.782;23.388;2022-07-06T10:19:04;16.58;;;15.00;;
19589;SDS011;12231;42.782;23.388;2022-07-06T10:21:38;16.08;;;14.68;;
19589;SDS011;12231;42.782;23.388;2022-07-06T10:24:05;15.95;;;14.45;;
19589;SDS011;12231;42.782;23.388;2022-07-06T10:26:33;16.80;;;15.27;;
19589;SDS011;12231;42.782;23.388;2022-07-06T10:28:59;16.80;;;15.18;;
19589;SDS011;12231;42.782;23.388;2022-07-06T10:31:26;17.38;;;15.27;;
19589;SDS011;12231;42.782;23.388;2022-07-06T10:33:56;18.02;;;16.23;;
19589;SDS011;12231;42.782;23.388;2022-07-06T10:36:22;16.05;;;14.52;;
19589;SDS011;12231;42.782;23.388;2022-07-06T10:38:49;15.63;;;14.20;;
19589;SDS011;12231;42.782;23.388;2022-07-06T10:41:16;15.73;;;14.27;;
19589;SDS011;12231;42.782;23.388;2022-07-06T10:43:42;15.77;;;14.32;;
19589;SDS011;12231;42.782;23.388;2022-07-06T10:46:09;15.25;;;13.75;;
19589;SDS011;12231;42.782;23.388;2022-07-06T10:48:40;16.17;;;14.38;;
19589;SDS011;12231;42.782;23.388;2022-07-06T10:51:07;16.80;;;15.10;;
19589;SDS011;12231;42.782;23.388;2022-07-06T10:53:34;17.35;;;15.75;;
19589;SDS011;12231;42.782;23.388;2022-07-06T10:56:05;19.42;;;17.58;;
19589;SDS011;12231;42.782;23.388;2022-07-06T11:01:07;18.55;;;16.73;;
19589;SDS011;12231;42.782;23.388;2022-07-06T11:11:21;15.77;;;14.43;;
19589;SDS011;12231;42.782;23.388;2022-07-06T11:14:04;16.00;;;14.38;;
19589;SDS011;12231;42.782;23.388;2022-07-06T11:16:39;18.52;;;16.33;;
19589;SDS011;12231;42.782;23.388;2022-07-06T11:19:20;18.48;;;16.65;;
19589;SDS011;12231;42.782;23.388;2022-07-06T11:21:52;19.25;;;17.45;;
19589;SDS011;12231;42.782;23.388;2022-07-06T11:24:24;17.75;;;16.10;;
19589;SDS011;12231;42.782;23.388;2022-07-06T11:26:51;18.23;;;16.60;;
19589;SDS011;12231;42.782;23.388;2022-07-06T11:29:19;18.63;;;17.00;;
19589;SDS011;12231;42.782;23.388;2022-07-06T11:31:47;18.85;;;17.25;;
19589;SDS011;12231;42.782;23.388;2022-07-06T11:34:20;18.80;;;17.15;;
19589;SDS011;12231;42.782;23.388;2022-07-06T11:36:47;19.10;;;17.30;;
19589;SDS011;12231;42.782;23.388;2022-07-06T11:39:14;16.38;;;14.88;;
19589;SDS011;12231;42.782;23.388;2022-07-06T11:41:40;18.13;;;16.33;;
19589;SDS011;12231;42.782;23.388;2022-07-06T11:44:06;16.70;;;15.30;;
19589;SDS011;12231;42.782;23.388;2022-07-06T11:46:32;15.88;;;14.43;;
19589;SDS011;12231;42.782;23.388;2022-07-06T11:49:00;16.58;;;15.27;;
19589;SDS011;12231;42.782;23.388;2022-07-06T11:51:36;15.88;;;14.52;;
19589;SDS011;12231;42.782;23.388;2022-07-06T11:54:19;15.95;;;14.55;;
19589;SDS011;12231;42.782;23.388;2022-07-06T11:56:47;15.45;;;14.25;;
19589;SDS011;12231;42.782;23.388;2022-07-06T11:59:19;14.85;;;13.35;;
19589;SDS011;12231;42.782;23.388;2022-07-06T12:01:46;16.52;;;15.00;;
19589;SDS011;12231;42.782;23.388;2022-07-06T12:04:11;14.80;;;13.43;;
19589;SDS011;12231;42.782;23.388;2022-07-06T12:06:37;15.30;;;13.85;;
19589;SDS011;12231;42.782;23.388;2022-07-06T12:09:02;14.63;;;13.27;;
19589;SDS011;12231;42.782;23.388;2022-07-06T12:11:33;13.05;;;12.05;;
19589;SDS011;12231;42.782;23.388;2022-07-06T12:14:01;14.77;;;13.32;;
19589;SDS011;12231;42.782;23.388;2022-07-06T12:16:46;13.38;;;12.27;;
19589;SDS011;12231;42.782;23.388;2022-07-06T12:19:14;12.70;;;11.57;;
19589;SDS011;12231;42.782;23.388;2022-07-06T12:21:46;13.35;;;12.25;;
19589;SDS011;12231;42.782;23.388;2022-07-06T12:24:20;12.88;;;11.77;;
19589;SDS011;12231;42.782;23.388;2022-07-06T12:26:47;11.95;;;10.88;;
19589;SDS011;12231;42.782;23.388;2022-07-06T12:29:14;13.05;;;11.85;;
19589;SDS011;12231;42.782;23.388;2022-07-06T12:31:43;13.27;;;12.13;;
19589;SDS011;12231;42.782;23.388;2022-07-06T12:34:13;12.73;;;11.65;;
19589;SDS011;12231;42.782;23.388;2022-07-06T12:36:44;13.60;;;12.30;;
19589;SDS011;12231;42.782;23.388;2022-07-06T12:39:15;11.90;;;10.82;;
19589;SDS011;12231;42.782;23.388;2022-07-06T12:41:49;12.15;;;10.95;;
19589;SDS011;12231;42.782;23.388;2022-07-06T12:44:22;13.00;;;11.80;;
19589;SDS011;12231;42.782;23.388;2022-07-06T12:47:02;12.68;;;11.48;;
19589;SDS011;12231;42.782;23.388;2022-07-06T12:49:29;12.02;;;10.93;;
19589;SDS011;12231;42.782;23.388;2022-07-06T12:51:56;11.70;;;10.80;;
19589;SDS011;12231;42.782;23.388;2022-07-06T12:54:34;11.23;;;10.38;;
19589;SDS011;12231;42.782;23.388;2022-07-06T13:02:26;10.32;;;9.52;;
19589;SDS011;12231;42.782;23.388;2022-07-06T13:04:56;10.52;;;9.63;;
19589;SDS011;12231;42.782;23.388;2022-07-06T13:07:29;10.63;;;9.73;;
19589;SDS011;12231;42.782;23.388;2022-07-06T13:09:57;10.48;;;9.35;;
19589;SDS011;12231;42.782;23.388;2022-07-06T13:12:23;10.98;;;9.82;;
19589;SDS011;12231;42.782;23.388;2022-07-06T13:14:49;9.18;;;8.48;;
19589;SDS011;12231;42.782;23.388;2022-07-06T13:17:15;9.30;;;8.48;;
19589;SDS011;12231;42.782;23.388;2022-07-06T13:19:41;7.55;;;6.90;;
19589;SDS011;12231;42.782;23.388;2022-07-06T13:22:07;8.63;;;7.13;;
19589;SDS011;12231;42.782;23.388;2022-07-06T13:24:33;8.25;;;6.50;;
19589;SDS011;12231;42.782;23.388;2022-07-06T13:26:58;6.68;;;6.10;;
19589;SDS011;12231;42.782;23.388;2022-07-06T13:29:24;6.25;;;5.78;;
19589;SDS011;12231;42.782;23.388;2022-07-06T13:31:49;6.72;;;6.00;;
19589;SDS011;12231;42.782;23.388;2022-07-06T13:34:15;5.68;;;5.18;;
19589;SDS011;12231;42.782;23.388;2022-07-06T13:36:41;6.00;;;5.60;;
19589;SDS011;12231;42.782;23.388;2022-07-06T13:39:07;5.15;;;4.75;;
19589;SDS011;12231;42.782;23.388;2022-07-06T13:41:33;5.30;;;4.82;;
19589;SDS011;12231;42.782;23.388;2022-07-06T13:43:59;5.10;;;4.70;;
19589;SDS011;12231;42.782;23.388;2022-07-06T13:46:26;4.78;;;4.40;;
19589;SDS011;12231;42.782;23.388;2022-07-06T13:48:52;5.47;;;5.10;;
19589;SDS011;12231;42.782;23.388;2022-07-06T13:51:18;5.25;;;4.75;;
19589;SDS011;12231;42.782;23.388;2022-07-06T13:53:43;5.03;;;4.63;;
19589;SDS011;12231;42.782;23.388;2022-07-06T13:56:10;6.80;;;4.82;;
19589;SDS011;12231;42.782;23.388;2022-07-06T13:58:36;5.43;;;4.82;;
19589;SDS011;12231;42.782;23.388;2022-07-06T14:01:01;7.18;;;5.38;;
19589;SDS011;12231;42.782;23.388;2022-07-06T14:03:27;5.95;;;5.07;;
19589;SDS011;12231;42.782;23.388;2022-07-06T14:05:59;5.03;;;4.65;;
19589;SDS011;12231;42.782;23.388;2022-07-06T14:08:26;5.30;;;4.85;;
19589;SDS011;12231;42.782;23.388;2022-07-06T14:10:52;5.28;;;4.80;;
19589;SDS011;12231;42.782;23.388;2022-07-06T14:13:18;5.43;;;5.03;;
19589;SDS011;12231;42.782;23.388;2022-07-06T14:15:44;4.55;;;4.25;;
19589;SDS011;12231;42.782;23.388;2022-07-06T14:18:10;4.25;;;3.95;;
19589;SDS011;12231;42.782;23.388;2022-07-06T14:20:35;4.45;;;4.05;;
19589;SDS011;12231;42.782;23.388;2022-07-06T14:23:01;4.63;;;4.10;;
19589;SDS011;12231;42.782;23.388;2022-07-06T14:25:26;4.55;;;3.92;;
19589;SDS011;12231;42.782;23.388;2022-07-06T14:27:52;4.82;;;3.83;;